»·PEaware :: N3021C KEMT-KSBD

N3021C :: KEMT-KSBD

FLIGHT INFORMATION

Flight Status: Arrived
Operator: Privately registered:
United States
More flights under this callsign
Pilot: Mark B. (9455)
Aircraft: CESSNA 172 SKYHAWK
(C172)
More flights by this aircraft type
Origin: KEMT El Monte
United States
Destination: KSBD San Bernardino Intl
United States
More flights between these airports :: More routes between these airports
Route: +PDZ
File this flight plan on PilotEdge
Remarks:
Altitude:
(Current/Filed)
7,000ft
Speed:
(Current/Filed)
115kts
Departed: 09-Jul-16 04:08 PM
Arrived: 09-Jul-16 05:10 PM
Distance/Time
Traveled:
40nm/1:02
Distance/Time
To Go:
Arrived

Flight Plot

Page will automatically refresh every two minutes.


Map Options




Map Legend


Flown Route
Filed Route
Departure Airport
Arrival Airport
Navaid (VOR, NDB)
Fix

Horizontal Profiles

Position Reports

Time Latitude Longitude Heading Altitude Ground
Speed
09-Jul-16 15:42 34.084329 -118.034362 23 288ft 0kts
09-Jul-16 15:43 34.084329 -118.034362 23 288ft 0kts
09-Jul-16 15:44 34.084329 -118.034362 23 288ft 0kts
09-Jul-16 15:45 34.084329 -118.034362 23 288ft 0kts
09-Jul-16 15:46 34.084329 -118.034362 23 288ft 0kts
09-Jul-16 15:47 34.084329 -118.034362 23 288ft 0kts
09-Jul-16 15:48 34.084329 -118.034362 23 288ft 0kts
09-Jul-16 15:49 34.084329 -118.034362 23 288ft 0kts
09-Jul-16 15:50 34.084329 -118.034362 23 288ft 0kts
09-Jul-16 15:50 34.084329 -118.034362 23 288ft 0kts
09-Jul-16 15:52 34.084329 -118.034362 23 288ft 0kts
09-Jul-16 15:52 34.084329 -118.034362 23 288ft 0kts
09-Jul-16 15:54 34.084329 -118.034362 23 288ft 0kts
09-Jul-16 15:54 34.084329 -118.034362 23 288ft 0kts
09-Jul-16 15:55 34.084329 -118.034362 23 288ft 0kts
09-Jul-16 15:56 34.084329 -118.034362 23 288ft 0kts
09-Jul-16 15:57 34.087301 -118.033471 24 289ft 26kts
09-Jul-16 15:58 34.090683 -118.031612 313 296ft 0kts
09-Jul-16 15:59 34.090683 -118.031612 313 296ft 0kts
09-Jul-16 16:00 34.090683 -118.031612 313 296ft 0kts
09-Jul-16 16:01 34.090683 -118.031612 313 296ft 0kts
09-Jul-16 16:02 34.090525 -118.032287 204 294ft 26kts
09-Jul-16 16:03 34.071586 -118.034635 132 1167ft 79kts
09-Jul-16 16:04 34.061469 -118.012257 108 2270ft 80kts
09-Jul-16 16:05 34.056746 -117.985621 95 3279ft 83kts
09-Jul-16 16:06 34.053943 -117.958109 98 4261ft 83kts
09-Jul-16 16:08 34.050530 -117.930281 108 5170ft 86kts
09-Jul-16 16:09 34.043251 -117.903078 108 6050ft 87kts
09-Jul-16 16:10 34.035395 -117.876277 115 6855ft 88kts
09-Jul-16 16:11 34.023794 -117.846889 112 7021ft 110kts
09-Jul-16 16:12 34.012054 -117.811464 110 7012ft 115kts
09-Jul-16 16:13 33.997057 -117.777584 114 7054ft 112kts
09-Jul-16 16:14 33.984813 -117.742211 105 7049ft 113kts
09-Jul-16 16:15 33.975126 -117.705321 110 7053ft 113kts
09-Jul-16 16:16 33.968549 -117.668128 112 7045ft 115kts
09-Jul-16 16:17 33.954487 -117.633417 117 7012ft 118kts
09-Jul-16 16:18 33.938796 -117.599629 108 7001ft 116kts
09-Jul-16 16:19 33.928546 -117.562848 113 7000ft 116kts
09-Jul-16 16:20 33.927438 -117.527713 34 6432ft 113kts
09-Jul-16 16:21 33.955894 -117.516028 11 5755ft 112kts
09-Jul-16 16:22 33.984567 -117.501266 21 4886ft 116kts
09-Jul-16 16:23 34.014479 -117.485583 25 4093ft 100kts
09-Jul-16 16:24 34.029178 -117.461472 65 3813ft 88kts
09-Jul-16 16:25 34.038234 -117.436116 73 3697ft 75kts
09-Jul-16 16:26 34.043983 -117.410464 63 3541ft 74kts
09-Jul-16 16:27 34.051491 -117.386546 77 3397ft 74kts
09-Jul-16 16:28 34.059257 -117.363186 72 3207ft 75kts
09-Jul-16 16:29 34.065841 -117.338459 78 2817ft 76kts
09-Jul-16 16:30 34.072209 -117.312980 73 2327ft 77kts
09-Jul-16 16:31 34.080145 -117.287808 74 1824ft 78kts
09-Jul-16 16:32 34.088913 -117.261839 62 2117ft 85kts
09-Jul-16 16:33 34.099200 -117.236148 95 3195ft 87kts
09-Jul-16 16:34 34.079097 -117.232283 211 4194ft 89kts
09-Jul-16 16:35 34.064471 -117.256832 235 5151ft 89kts
09-Jul-16 16:36 34.051041 -117.282306 235 5920ft 94kts
09-Jul-16 16:37 34.037064 -117.306229 235 6015ft 86kts
09-Jul-16 16:38 34.024337 -117.330796 237 6033ft 86kts
09-Jul-16 16:39 34.011352 -117.355664 236 6031ft 87kts
09-Jul-16 16:40 33.998760 -117.381256 239 6023ft 89kts
09-Jul-16 16:41 33.985712 -117.407094 241 6021ft 89kts
09-Jul-16 16:42 33.971957 -117.431721 242 6021ft 89kts
09-Jul-16 16:43 33.959090 -117.457239 237 6021ft 87kts
09-Jul-16 16:44 33.945387 -117.481881 241 6013ft 88kts
09-Jul-16 16:45 33.931666 -117.507130 238 5834ft 74kts
09-Jul-16 16:46 33.920047 -117.527197 229 5587ft 76kts
09-Jul-16 16:47 33.928847 -117.534389 51 5247ft 75kts
09-Jul-16 16:48 33.931461 -117.510023 93 4882ft 74kts
09-Jul-16 16:49 33.919023 -117.499518 225 4506ft 74kts
09-Jul-16 16:50 33.918412 -117.523395 308 4142ft 76kts
09-Jul-16 16:51 33.937194 -117.520117 29 4017ft 72kts
09-Jul-16 16:52 33.956124 -117.511756 19 3948ft 70kts
09-Jul-16 16:53 33.975534 -117.503275 18 4047ft 70kts
09-Jul-16 16:54 33.994858 -117.494265 18 4014ft 71kts
09-Jul-16 16:55 34.013908 -117.484728 21 3975ft 72kts
09-Jul-16 16:55 34.026595 -117.472231 71 3816ft 70kts
09-Jul-16 16:56 34.034555 -117.449126 63 3682ft 70kts
09-Jul-16 16:58 34.042761 -117.421922 71 3742ft 72kts
09-Jul-16 16:58 34.046324 -117.401776 80 3733ft 73kts
09-Jul-16 16:59 34.053408 -117.378829 70 3495ft 73kts
09-Jul-16 17:00 34.059897 -117.354510 72 3095ft 75kts
09-Jul-16 17:01 34.067939 -117.329465 74 2600ft 81kts
09-Jul-16 17:02 34.075655 -117.302909 69 2058ft 82kts
09-Jul-16 17:03 34.082931 -117.275972 62 1520ft 82kts
09-Jul-16 17:04 34.091154 -117.249983 75 1118ft 78kts
09-Jul-16 17:05 34.095317 -117.235852 9 1114ft 13kts
09-Jul-16 17:06 34.096193 -117.236280 327 1114ft 0kts

Navigation Log

Ident Type
Flight plan parsing failed, navigation log unavailable